CEB4027 RPVM-RPVD
Flight info
| Callsign | CEB4027 |
|---|---|
| Flight time | 0h 25m |
| Altitude | 14000 |
| Route | EMDEE1Q EMDEE DCT GRACI |
| Aircraft | A20N/M-SDE2E3FGHIRWXY/LB1 |
Departure
| Time | 2026-04-18 03:21 |
|---|---|
| Airport | Mactan Cebu International Airport (RPVM) |
Arrival
| Time | 2026-04-18 03:47 |
|---|---|
| Airport | Sibulan Airport (RPVD) |
| Time | Latitude | Longitude | Altitude | Speed | Heading |
|---|---|---|---|---|---|
| 2026-04-18 03:07 | 10.31552 | 123.97974 | 46 ft | 0 kts | 314° |
| 2026-04-18 03:11 | 10.31550 | 123.97977 | 46 ft | 2 kts | 314° |
| 2026-04-18 03:11 | 10.31539 | 123.97987 | 46 ft | 2 kts | 314° |
| 2026-04-18 03:11 | 10.31529 | 123.97999 | 46 ft | 2 kts | 314° |
| 2026-04-18 03:11 | 10.31518 | 123.98010 | 46 ft | 2 kts | 314° |
| 2026-04-18 03:12 | 10.31509 | 123.98019 | 46 ft | 0 kts | 314° |
| 2026-04-18 03:12 | 10.31502 | 123.98029 | 46 ft | 2 kts | 281° |
| 2026-04-18 03:12 | 10.31503 | 123.98044 | 46 ft | 2 kts | 243° |
| 2026-04-18 03:12 | 10.31508 | 123.98051 | 46 ft | 1 kts | 221° |
| 2026-04-18 03:13 | 10.31512 | 123.98055 | 46 ft | 0 kts | 224° |
| 2026-04-18 03:15 | 10.31511 | 123.98053 | 46 ft | 1 kts | 224° |
| 2026-04-18 03:15 | 10.31496 | 123.98038 | 46 ft | 4 kts | 225° |
| 2026-04-18 03:15 | 10.31467 | 123.98009 | 46 ft | 7 kts | 225° |
| 2026-04-18 03:15 | 10.31424 | 123.97965 | 46 ft | 9 kts | 225° |
| 2026-04-18 03:16 | 10.31380 | 123.97920 | 46 ft | 8 kts | 225° |
| 2026-04-18 03:16 | 10.31320 | 123.97903 | 46 ft | 10 kts | 153° |
| 2026-04-18 03:16 | 10.31270 | 123.97952 | 45 ft | 9 kts | 134° |
| 2026-04-18 03:16 | 10.31218 | 123.97985 | 45 ft | 9 kts | 184° |
| 2026-04-18 03:17 | 10.31158 | 123.97938 | 45 ft | 12 kts | 227° |
| 2026-04-18 03:17 | 10.31093 | 123.97871 | 45 ft | 14 kts | 223° |
| 2026-04-18 03:17 | 10.31016 | 123.97794 | 45 ft | 16 kts | 225° |
| 2026-04-18 03:17 | 10.30932 | 123.97711 | 45 ft | 17 kts | 224° |
| 2026-04-18 03:18 | 10.30839 | 123.97618 | 46 ft | 19 kts | 225° |
| 2026-04-18 03:18 | 10.30743 | 123.97520 | 46 ft | 20 kts | 225° |
| 2026-04-18 03:18 | 10.30645 | 123.97421 | 45 ft | 18 kts | 225° |
| 2026-04-18 03:18 | 10.30548 | 123.97326 | 45 ft | 20 kts | 224° |
| 2026-04-18 03:19 | 10.30470 | 123.97247 | 46 ft | 14 kts | 225° |
| 2026-04-18 03:19 | 10.30399 | 123.97175 | 46 ft | 10 kts | 225° |
| 2026-04-18 03:19 | 10.30334 | 123.97175 | 45 ft | 11 kts | 137° |
| 2026-04-18 03:19 | 10.30326 | 123.97239 | 45 ft | 10 kts | 60° |
| 2026-04-18 03:20 | 10.30343 | 123.97259 | 45 ft | 0 kts | 43° |
| 2026-04-18 03:20 | 10.30344 | 123.97259 | 45 ft | 0 kts | 43° |
| 2026-04-18 03:20 | 10.30442 | 123.97356 | 46 ft | 55 kts | 44° |
| 2026-04-18 03:21 | 10.30899 | 123.97816 | 46 ft | 126 kts | 45° |
| 2026-04-18 03:21 | 10.31620 | 123.98536 | 274 ft | 156 kts | 43° |
| 2026-04-18 03:21 | 10.32381 | 123.99304 | 951 ft | 153 kts | 44° |
| 2026-04-18 03:21 | 10.33108 | 124.00043 | 1657 ft | 150 kts | 45° |
| 2026-04-18 03:22 | 10.33832 | 124.00829 | 2140 ft | 159 kts | 56° |
| 2026-04-18 03:22 | 10.33999 | 124.01969 | 2483 ft | 180 kts | 107° |
| 2026-04-18 03:22 | 10.33272 | 124.03056 | 2884 ft | 198 kts | 128° |
| 2026-04-18 03:22 | 10.32383 | 124.04199 | 3333 ft | 213 kts | 125° |
| 2026-04-18 03:23 | 10.31504 | 124.05414 | 3956 ft | 218 kts | 124° |
| 2026-04-18 03:23 | 10.30624 | 124.06673 | 4620 ft | 223 kts | 123° |
| 2026-04-18 03:23 | 10.29676 | 124.08051 | 5003 ft | 249 kts | 123° |
| 2026-04-18 03:23 | 10.28643 | 124.09562 | 5565 ft | 268 kts | 123° |
| 2026-04-18 03:24 | 10.27557 | 124.11156 | 6244 ft | 281 kts | 123° |
| 2026-04-18 03:24 | 10.26443 | 124.12786 | 7157 ft | 285 kts | 123° |
| 2026-04-18 03:24 | 10.25326 | 124.14426 | 8089 ft | 287 kts | 123° |
| 2026-04-18 03:24 | 10.24186 | 124.16098 | 9017 ft | 290 kts | 123° |
| 2026-04-18 03:25 | 10.23027 | 124.17797 | 9919 ft | 293 kts | 123° |
| 2026-04-18 03:25 | 10.21865 | 124.19501 | 10667 ft | 301 kts | 123° |
| 2026-04-18 03:25 | 10.20431 | 124.21182 | 11109 ft | 321 kts | 141° |
| 2026-04-18 03:25 | 10.18404 | 124.22252 | 11486 ft | 342 kts | 163° |
| 2026-04-18 03:26 | 10.15961 | 124.22469 | 11828 ft | 362 kts | 186° |
| 2026-04-18 03:26 | 10.13410 | 124.21970 | 12176 ft | 379 kts | 191° |
| 2026-04-18 03:26 | 10.10780 | 124.21407 | 12661 ft | 390 kts | 191° |
| 2026-04-18 03:26 | 10.08087 | 124.20843 | 13329 ft | 393 kts | 191° |
| 2026-04-18 03:27 | 10.05382 | 124.20284 | 13758 ft | 395 kts | 191° |
| 2026-04-18 03:27 | 10.02697 | 124.19738 | 13928 ft | 397 kts | 191° |
| 2026-04-18 03:27 | 9.99959 | 124.19186 | 13934 ft | 397 kts | 191° |
| 2026-04-18 03:27 | 9.97231 | 124.18638 | 13940 ft | 397 kts | 191° |
| 2026-04-18 03:28 | 9.94539 | 124.18097 | 13946 ft | 397 kts | 191° |
| 2026-04-18 03:28 | 9.91810 | 124.17548 | 13951 ft | 398 kts | 191° |
| 2026-04-18 03:28 | 9.89052 | 124.16995 | 13957 ft | 398 kts | 191° |
| 2026-04-18 03:28 | 9.86330 | 124.16449 | 13960 ft | 398 kts | 191° |
| 2026-04-18 03:29 | 9.83591 | 124.15858 | 13958 ft | 398 kts | 195° |
| 2026-04-18 03:29 | 9.80984 | 124.14880 | 13925 ft | 398 kts | 205° |
| 2026-04-18 03:29 | 9.78612 | 124.13475 | 13698 ft | 396 kts | 215° |
| 2026-04-18 03:29 | 9.76434 | 124.11737 | 13465 ft | 394 kts | 219° |
| 2026-04-18 03:30 | 9.74331 | 124.09952 | 13231 ft | 392 kts | 220° |
| 2026-04-18 03:30 | 9.72244 | 124.08169 | 12990 ft | 391 kts | 220° |
| 2026-04-18 03:30 | 9.70184 | 124.06418 | 12753 ft | 389 kts | 219° |
| 2026-04-18 03:30 | 9.68097 | 124.04653 | 12506 ft | 388 kts | 219° |
| 2026-04-18 03:31 | 9.66019 | 124.02902 | 12210 ft | 386 kts | 219° |
| 2026-04-18 03:31 | 9.63940 | 124.01151 | 11815 ft | 385 kts | 219° |
| 2026-04-18 03:31 | 9.61915 | 123.99450 | 11419 ft | 377 kts | 219° |
| 2026-04-18 03:31 | 9.59920 | 123.97775 | 11171 ft | 364 kts | 219° |
| 2026-04-18 03:32 | 9.58000 | 123.96164 | 10939 ft | 351 kts | 219° |
| 2026-04-18 03:32 | 9.56124 | 123.94589 | 10701 ft | 340 kts | 220° |
| 2026-04-18 03:32 | 9.54337 | 123.93089 | 10480 ft | 329 kts | 220° |
| 2026-04-18 03:32 | 9.52579 | 123.91615 | 10257 ft | 320 kts | 220° |
| 2026-04-18 03:33 | 9.50897 | 123.90204 | 10097 ft | 308 kts | 220° |
| 2026-04-18 03:33 | 9.49290 | 123.88854 | 9978 ft | 296 kts | 220° |
| 2026-04-18 03:33 | 9.47710 | 123.87525 | 9663 ft | 293 kts | 219° |
| 2026-04-18 03:33 | 9.46141 | 123.86206 | 9299 ft | 291 kts | 219° |
| 2026-04-18 03:34 | 9.44574 | 123.84894 | 9037 ft | 285 kts | 219° |
| 2026-04-18 03:34 | 9.43072 | 123.83637 | 8865 ft | 275 kts | 219° |
| 2026-04-18 03:34 | 9.41620 | 123.82423 | 8634 ft | 263 kts | 219° |
| 2026-04-18 03:34 | 9.40247 | 123.81272 | 8403 ft | 251 kts | 219° |
| 2026-04-18 03:35 | 9.38936 | 123.80173 | 8171 ft | 239 kts | 220° |
| 2026-04-18 03:35 | 9.37694 | 123.79108 | 7982 ft | 225 kts | 226° |
| 2026-04-18 03:35 | 9.36862 | 123.77884 | 7856 ft | 205 kts | 247° |
| 2026-04-18 03:35 | 9.36540 | 123.76514 | 7627 ft | 192 kts | 266° |
| 2026-04-18 03:36 | 9.36508 | 123.75207 | 7411 ft | 181 kts | 271° |
| 2026-04-18 03:36 | 9.36515 | 123.73983 | 7201 ft | 170 kts | 272° |
| 2026-04-18 03:36 | 9.36523 | 123.72810 | 6934 ft | 164 kts | 272° |
| 2026-04-18 03:36 | 9.36520 | 123.71663 | 6606 ft | 163 kts | 272° |
| 2026-04-18 03:37 | 9.36513 | 123.70525 | 6264 ft | 162 kts | 272° |
| 2026-04-18 03:37 | 9.36502 | 123.69388 | 5915 ft | 161 kts | 272° |
| 2026-04-18 03:37 | 9.36490 | 123.68261 | 5581 ft | 161 kts | 271° |
| 2026-04-18 03:37 | 9.36476 | 123.67130 | 5247 ft | 161 kts | 271° |
| 2026-04-18 03:38 | 9.36461 | 123.65995 | 4909 ft | 160 kts | 271° |
| 2026-04-18 03:38 | 9.36445 | 123.64869 | 4576 ft | 160 kts | 271° |
| 2026-04-18 03:38 | 9.36429 | 123.63749 | 4253 ft | 159 kts | 271° |
| 2026-04-18 03:38 | 9.36413 | 123.62633 | 3934 ft | 158 kts | 271° |
| 2026-04-18 03:39 | 9.36397 | 123.61523 | 3613 ft | 158 kts | 271° |
| 2026-04-18 03:39 | 9.36332 | 123.60414 | 3452 ft | 158 kts | 265° |
| 2026-04-18 03:39 | 9.36136 | 123.59302 | 3357 ft | 159 kts | 258° |
| 2026-04-18 03:39 | 9.35806 | 123.58239 | 3267 ft | 160 kts | 250° |
| 2026-04-18 03:40 | 9.35385 | 123.57193 | 3181 ft | 160 kts | 249° |
| 2026-04-18 03:40 | 9.34953 | 123.56148 | 3162 ft | 159 kts | 249° |
| 2026-04-18 03:40 | 9.34525 | 123.55110 | 3160 ft | 160 kts | 250° |
| 2026-04-18 03:40 | 9.34100 | 123.54070 | 3161 ft | 160 kts | 250° |
| 2026-04-18 03:41 | 9.33674 | 123.53024 | 3167 ft | 160 kts | 250° |
| 2026-04-18 03:41 | 9.33246 | 123.51971 | 3168 ft | 160 kts | 249° |
| 2026-04-18 03:41 | 9.32825 | 123.50935 | 3152 ft | 160 kts | 250° |
| 2026-04-18 03:41 | 9.32453 | 123.49866 | 3122 ft | 159 kts | 261° |
| 2026-04-18 03:42 | 9.32355 | 123.48755 | 3075 ft | 156 kts | 274° |
| 2026-04-18 03:42 | 9.32404 | 123.47693 | 2969 ft | 146 kts | 277° |
| 2026-04-18 03:42 | 9.32475 | 123.46685 | 2884 ft | 144 kts | 278° |
| 2026-04-18 03:42 | 9.32547 | 123.45660 | 2801 ft | 144 kts | 277° |
| 2026-04-18 03:43 | 9.32612 | 123.44656 | 2659 ft | 144 kts | 277° |
| 2026-04-18 03:43 | 9.32676 | 123.43643 | 2430 ft | 143 kts | 276° |
| 2026-04-18 03:43 | 9.32733 | 123.42634 | 2241 ft | 143 kts | 276° |
| 2026-04-18 03:43 | 9.32791 | 123.41614 | 2051 ft | 143 kts | 276° |
| 2026-04-18 03:44 | 9.32849 | 123.40601 | 1863 ft | 143 kts | 276° |
| 2026-04-18 03:44 | 9.32904 | 123.39602 | 1687 ft | 143 kts | 276° |
| 2026-04-18 03:44 | 9.32961 | 123.38591 | 1497 ft | 142 kts | 276° |
| 2026-04-18 03:44 | 9.33017 | 123.37583 | 1311 ft | 142 kts | 276° |
| 2026-04-18 03:45 | 9.33073 | 123.36560 | 1121 ft | 141 kts | 276° |
| 2026-04-18 03:45 | 9.33129 | 123.35576 | 935 ft | 140 kts | 276° |
| 2026-04-18 03:45 | 9.33184 | 123.34570 | 747 ft | 140 kts | 276° |
| 2026-04-18 03:45 | 9.33240 | 123.33585 | 562 ft | 139 kts | 276° |
| 2026-04-18 03:46 | 9.33287 | 123.32600 | 373 ft | 139 kts | 274° |
| 2026-04-18 03:46 | 9.33336 | 123.31621 | 168 ft | 137 kts | 278° |
| 2026-04-18 03:46 | 9.33394 | 123.30658 | 65 ft | 133 kts | 276° |
| 2026-04-18 03:46 | 9.33441 | 123.29840 | 59 ft | 89 kts | 273° |
| 2026-04-18 03:47 | 9.33456 | 123.29549 | 60 ft | 20 kts | 274° |
| 2026-04-18 03:47 | 9.33457 | 123.29530 | 60 ft | 2 kts | 274° |
| 2026-04-18 03:47 | 9.33456 | 123.29496 | 60 ft | 4 kts | 249° |
| 2026-04-18 03:47 | 9.33425 | 123.29490 | 60 ft | 6 kts | 152° |
| 2026-04-18 03:48 | 9.33398 | 123.29511 | 60 ft | 5 kts | 141° |
| 2026-04-18 03:48 | 9.33376 | 123.29537 | 60 ft | 4 kts | 107° |
| 2026-04-18 03:48 | 9.33373 | 123.29568 | 60 ft | 4 kts | 92° |
| 2026-04-18 03:48 | 9.33372 | 123.29594 | 60 ft | 1 kts | 95° |
| 2026-04-18 03:49 | 9.33369 | 123.29600 | 60 ft | 0 kts | 119° |
| 2026-04-18 03:49 | 9.33367 | 123.29603 | 60 ft | 2 kts | 128° |
| 2026-04-18 03:49 | 9.33349 | 123.29620 | 60 ft | 4 kts | 148° |
| 2026-04-18 03:49 | 9.33332 | 123.29630 | 60 ft | 0 kts | 150° |
| 2026-04-18 03:50 | 9.33326 | 123.29633 | 60 ft | 0 kts | 153° |